sensor_id;sensor_type;location;lat;lon;timestamp;pressure;altitude;pressure_sealevel;temperature;humidity
53514;BME280;39768;54.148;12.174;2023-08-21T00:02:21;102090.78;;;17.80;96.02
53514;BME280;39768;54.148;12.174;2023-08-21T00:06:22;102086.81;;;17.67;97.37
53514;BME280;39768;54.148;12.174;2023-08-21T00:10:24;102083.03;;;17.28;100.00
53514;BME280;39768;54.148;12.174;2023-08-21T00:14:25;102079.09;;;17.14;100.00
53514;BME280;39768;54.148;12.174;2023-08-21T00:18:27;102080.75;;;17.40;100.00
53514;BME280;39768;54.148;12.174;2023-08-21T00:22:29;102077.88;;;17.43;99.75
53514;BME280;39768;54.148;12.174;2023-08-21T00:26:30;102082.53;;;17.62;98.27
53514;BME280;39768;54.148;12.174;2023-08-21T00:30:32;102079.88;;;17.60;97.35
53514;BME280;39768;54.148;12.174;2023-08-21T00:34:34;102064.31;;;17.65;97.28
53514;BME280;39768;54.148;12.174;2023-08-21T00:38:37;102065.53;;;17.58;97.30
53514;BME280;39768;54.148;12.174;2023-08-21T00:42:38;102068.03;;;17.84;94.85
53514;BME280;39768;54.148;12.174;2023-08-21T00:46:40;102070.06;;;17.79;93.74
53514;BME280;39768;54.148;12.174;2023-08-21T00:50:43;102069.16;;;17.57;93.55
53514;BME280;39768;54.148;12.174;2023-08-21T00:54:45;102065.69;;;17.55;94.52
53514;BME280;39768;54.148;12.174;2023-08-21T00:58:47;102076.09;;;17.64;93.35
53514;BME280;39768;54.148;12.174;2023-08-21T01:02:48;102067.78;;;17.69;93.33
53514;BME280;39768;54.148;12.174;2023-08-21T01:06:50;102072.09;;;18.15;88.97
53514;BME280;39768;54.148;12.174;2023-08-21T01:11:05;102064.44;;;18.04;88.38
53514;BME280;39768;54.148;12.174;2023-08-21T01:15:09;102064.78;;;17.97;88.93
53514;BME280;39768;54.148;12.174;2023-08-21T01:19:24;102062.34;;;17.91;88.98
53514;BME280;39768;54.148;12.174;2023-08-21T01:23:34;102063.09;;;17.72;90.74
53514;BME280;39768;54.148;12.174;2023-08-21T01:27:36;102066.75;;;18.32;85.63
53514;BME280;39768;54.148;12.174;2023-08-21T01:31:39;102062.47;;;18.28;85.00
53514;BME280;39768;54.148;12.174;2023-08-21T01:35:46;102073.03;;;18.14;87.43
53514;BME280;39768;54.148;12.174;2023-08-21T01:39:48;102073.81;;;18.36;85.46
53514;BME280;39768;54.148;12.174;2023-08-21T01:43:49;102071.38;;;18.30;85.67
53514;BME280;39768;54.148;12.174;2023-08-21T01:47:51;102077.13;;;18.43;85.42
53514;BME280;39768;54.148;12.174;2023-08-21T01:51:52;102084.97;;;18.49;85.04
53514;BME280;39768;54.148;12.174;2023-08-21T01:55:54;102079.59;;;18.08;87.13
53514;BME280;39768;54.148;12.174;2023-08-21T01:59:56;102077.22;;;17.80;91.56
53514;BME280;39768;54.148;12.174;2023-08-21T02:03:57;102082.38;;;17.86;91.33
53514;BME280;39768;54.148;12.174;2023-08-21T02:07:58;102079.97;;;18.40;87.11
53514;BME280;39768;54.148;12.174;2023-08-21T02:12:00;102083.09;;;18.31;88.18
53514;BME280;39768;54.148;12.174;2023-08-21T02:16:02;102084.78;;;18.33;86.94
53514;BME280;39768;54.148;12.174;2023-08-21T02:20:04;102087.75;;;18.68;85.45
53514;BME280;39768;54.148;12.174;2023-08-21T02:24:05;102085.53;;;18.76;84.91
53514;BME280;39768;54.148;12.174;2023-08-21T02:28:07;102085.78;;;18.12;87.34
53514;BME280;39768;54.148;12.174;2023-08-21T02:32:08;102079.81;;;17.83;90.72
53514;BME280;39768;54.148;12.174;2023-08-21T02:36:10;102077.78;;;17.25;95.89
53514;BME280;39768;54.148;12.174;2023-08-21T02:40:11;102074.75;;;17.74;94.84
53514;BME280;39768;54.148;12.174;2023-08-21T02:44:13;102081.31;;;17.69;91.61
53514;BME280;39768;54.148;12.174;2023-08-21T02:48:15;102081.50;;;17.64;92.79
53514;BME280;39768;54.148;12.174;2023-08-21T02:52:17;102083.00;;;17.71;91.88
53514;BME280;39768;54.148;12.174;2023-08-21T02:56:19;102084.28;;;17.84;92.16
53514;BME280;39768;54.148;12.174;2023-08-21T03:00:21;102084.28;;;18.25;88.60
53514;BME280;39768;54.148;12.174;2023-08-21T03:04:22;102084.94;;;17.90;89.16
53514;BME280;39768;54.148;12.174;2023-08-21T03:08:24;102080.63;;;18.06;88.13
53514;BME280;39768;54.148;12.174;2023-08-21T03:12:26;102080.22;;;17.95;88.59
53514;BME280;39768;54.148;12.174;2023-08-21T03:16:27;102084.41;;;17.60;88.61
53514;BME280;39768;54.148;12.174;2023-08-21T03:20:29;102075.94;;;17.47;89.65
53514;BME280;39768;54.148;12.174;2023-08-21T03:24:31;102074.88;;;17.51;90.89
53514;BME280;39768;54.148;12.174;2023-08-21T03:28:33;102080.28;;;17.29;90.30
53514;BME280;39768;54.148;12.174;2023-08-21T03:32:34;102079.94;;;18.01;87.13
53514;BME280;39768;54.148;12.174;2023-08-21T03:36:37;102080.09;;;17.98;85.77
53514;BME280;39768;54.148;12.174;2023-08-21T03:40:43;102081.75;;;18.00;86.09
53514;BME280;39768;54.148;12.174;2023-08-21T03:44:44;102067.41;;;17.78;86.99
53514;BME280;39768;54.148;12.174;2023-08-21T03:48:46;102072.34;;;17.89;86.47
53514;BME280;39768;54.148;12.174;2023-08-21T03:52:49;102074.75;;;17.96;86.99
53514;BME280;39768;54.148;12.174;2023-08-21T03:56:50;102069.78;;;17.85;88.04
53514;BME280;39768;54.148;12.174;2023-08-21T04:00:53;102075.75;;;17.72;89.35
53514;BME280;39768;54.148;12.174;2023-08-21T04:04:54;102077.31;;;17.13;95.29
53514;BME280;39768;54.148;12.174;2023-08-21T04:08:57;102080.34;;;18.12;88.60
53514;BME280;39768;54.148;12.174;2023-08-21T04:12:58;102080.13;;;18.16;88.75
53514;BME280;39768;54.148;12.174;2023-08-21T04:17:03;102077.66;;;18.31;88.15
53514;BME280;39768;54.148;12.174;2023-08-21T04:21:04;102078.72;;;17.88;90.39
53514;BME280;39768;54.148;12.174;2023-08-21T04:25:06;102082.94;;;18.15;88.67
53514;BME280;39768;54.148;12.174;2023-08-21T04:29:08;102089.69;;;18.25;87.92
53514;BME280;39768;54.148;12.174;2023-08-21T04:33:11;102086.28;;;18.20;87.91
53514;BME280;39768;54.148;12.174;2023-08-21T04:37:12;102086.03;;;18.06;89.62
53514;BME280;39768;54.148;12.174;2023-08-21T04:41:14;102081.03;;;17.97;88.67
53514;BME280;39768;54.148;12.174;2023-08-21T04:45:19;102084.88;;;17.49;94.07
53514;BME280;39768;54.148;12.174;2023-08-21T04:49:20;102086.59;;;17.94;91.03
53514;BME280;39768;54.148;12.174;2023-08-21T04:53:22;102089.81;;;18.22;89.69
53514;BME280;39768;54.148;12.174;2023-08-21T04:57:24;102091.25;;;19.07;81.63
53514;BME280;39768;54.148;12.174;2023-08-21T05:01:26;102100.97;;;20.85;73.48
53514;BME280;39768;54.148;12.174;2023-08-21T05:05:28;102101.88;;;21.94;64.30
53514;BME280;39768;54.148;12.174;2023-08-21T05:09:30;102107.06;;;21.83;60.26
53514;BME280;39768;54.148;12.174;2023-08-21T05:13:32;102110.47;;;21.25;68.64
53514;BME280;39768;54.148;12.174;2023-08-21T05:17:34;102115.81;;;20.80;74.08
53514;BME280;39768;54.148;12.174;2023-08-21T05:21:35;102117.19;;;20.04;83.88
53514;BME280;39768;54.148;12.174;2023-08-21T05:25:37;102117.00;;;19.89;88.67
53514;BME280;39768;54.148;12.174;2023-08-21T05:29:39;102116.91;;;19.74;95.30
53514;BME280;39768;54.148;12.174;2023-08-21T05:33:40;102122.44;;;19.89;94.80
53514;BME280;39768;54.148;12.174;2023-08-21T05:37:42;102129.75;;;19.70;96.95
53514;BME280;39768;54.148;12.174;2023-08-21T05:41:43;102134.84;;;19.95;97.69
53514;BME280;39768;54.148;12.174;2023-08-21T05:45:46;102134.06;;;19.57;98.36
53514;BME280;39768;54.148;12.174;2023-08-21T05:49:48;102128.28;;;19.46;100.00
53514;BME280;39768;54.148;12.174;2023-08-21T05:53:50;102129.69;;;19.17;100.00
53514;BME280;39768;54.148;12.174;2023-08-21T05:57:51;102139.28;;;19.05;100.00
53514;BME280;39768;54.148;12.174;2023-08-21T06:01:54;102135.91;;;18.81;100.00
53514;BME280;39768;54.148;12.174;2023-08-21T06:05:55;102137.22;;;19.10;100.00
53514;BME280;39768;54.148;12.174;2023-08-21T06:09:58;102143.56;;;20.19;98.15
53514;BME280;39768;54.148;12.174;2023-08-21T06:13:59;102153.47;;;20.03;95.34
53514;BME280;39768;54.148;12.174;2023-08-21T06:18:01;102157.75;;;19.53;100.00
53514;BME280;39768;54.148;12.174;2023-08-21T06:22:03;102151.13;;;19.23;100.00
53514;BME280;39768;54.148;12.174;2023-08-21T06:26:04;102150.81;;;19.48;96.57
53514;BME280;39768;54.148;12.174;2023-08-21T06:30:06;102146.75;;;19.19;95.33
53514;BME280;39768;54.148;12.174;2023-08-21T06:34:08;102153.72;;;19.06;96.18
53514;BME280;39768;54.148;12.174;2023-08-21T06:38:10;102151.31;;;19.37;94.03
53514;BME280;39768;54.148;12.174;2023-08-21T06:42:12;102157.84;;;19.88;90.94
53514;BME280;39768;54.148;12.174;2023-08-21T06:46:20;102149.28;;;20.47;86.48
53514;BME280;39768;54.148;12.174;2023-08-21T06:50:22;102153.94;;;20.45;83.96
53514;BME280;39768;54.148;12.174;2023-08-21T06:54:23;102146.28;;;20.19;83.11
53514;BME280;39768;54.148;12.174;2023-08-21T06:58:25;102157.03;;;20.55;80.45
53514;BME280;39768;54.148;12.174;2023-08-21T07:02:26;102161.47;;;19.70;86.76
53514;BME280;39768;54.148;12.174;2023-08-21T07:06:30;102165.72;;;19.75;89.72
53514;BME280;39768;54.148;12.174;2023-08-21T07:10:37;102157.09;;;20.20;87.80
53514;BME280;39768;54.148;12.174;2023-08-21T07:14:39;102160.56;;;20.40;80.35
53514;BME280;39768;54.148;12.174;2023-08-21T07:18:41;102166.06;;;21.21;79.41
53514;BME280;39768;54.148;12.174;2023-08-21T07:22:42;102162.63;;;21.02;76.31
53514;BME280;39768;54.148;12.174;2023-08-21T07:26:44;102161.88;;;20.33;78.02
53514;BME280;39768;54.148;12.174;2023-08-21T07:30:46;102164.38;;;20.70;79.37
53514;BME280;39768;54.148;12.174;2023-08-21T07:34:52;102171.59;;;20.71;77.52
53514;BME280;39768;54.148;12.174;2023-08-21T07:38:53;102180.47;;;20.40;81.23
53514;BME280;39768;54.148;12.174;2023-08-21T07:42:55;102183.19;;;20.40;83.41
53514;BME280;39768;54.148;12.174;2023-08-21T07:46:56;102181.31;;;20.08;84.70
53514;BME280;39768;54.148;12.174;2023-08-21T07:50:58;102186.69;;;20.59;81.96
53514;BME280;39768;54.148;12.174;2023-08-21T07:54:59;102182.56;;;20.52;79.70
53514;BME280;39768;54.148;12.174;2023-08-21T07:59:02;102186.06;;;20.72;75.41
53514;BME280;39768;54.148;12.174;2023-08-21T08:03:05;102184.00;;;21.25;76.35
53514;BME280;39768;54.148;12.174;2023-08-21T08:07:07;102183.91;;;21.58;71.65
53514;BME280;39768;54.148;12.174;2023-08-21T08:11:09;102183.03;;;21.26;72.59
53514;BME280;39768;54.148;12.174;2023-08-21T08:15:10;102178.00;;;21.19;73.09
53514;BME280;39768;54.148;12.174;2023-08-21T08:19:12;102179.44;;;21.42;73.61
53514;BME280;39768;54.148;12.174;2023-08-21T08:23:13;102186.06;;;21.05;75.85
53514;BME280;39768;54.148;12.174;2023-08-21T08:27:15;102178.84;;;21.37;76.70
53514;BME280;39768;54.148;12.174;2023-08-21T08:31:18;102185.47;;;22.10;70.49
53514;BME280;39768;54.148;12.174;2023-08-21T08:35:19;102188.06;;;21.50;72.36
53514;BME280;39768;54.148;12.174;2023-08-21T08:39:21;102190.38;;;20.76;76.68
53514;BME280;39768;54.148;12.174;2023-08-21T08:43:25;102183.69;;;20.48;82.63
53514;BME280;39768;54.148;12.174;2023-08-21T08:47:26;102191.94;;;20.97;81.03
53514;BME280;39768;54.148;12.174;2023-08-21T08:51:31;102192.31;;;20.56;81.61
53514;BME280;39768;54.148;12.174;2023-08-21T08:55:35;102180.28;;;21.11;80.51
53514;BME280;39768;54.148;12.174;2023-08-21T08:59:37;102189.81;;;20.69;82.79
53514;BME280;39768;54.148;12.174;2023-08-21T09:03:38;102194.72;;;20.80;81.13
53514;BME280;39768;54.148;12.174;2023-08-21T09:07:42;102195.00;;;21.40;78.20
53514;BME280;39768;54.148;12.174;2023-08-21T09:11:43;102198.47;;;20.77;79.00
53514;BME280;39768;54.148;12.174;2023-08-21T09:15:47;102206.44;;;21.13;74.42
53514;BME280;39768;54.148;12.174;2023-08-21T09:19:49;102208.41;;;21.11;78.02
53514;BME280;39768;54.148;12.174;2023-08-21T09:23:59;102197.81;;;21.54;71.85
53514;BME280;39768;54.148;12.174;2023-08-21T09:28:04;102205.56;;;20.97;72.04
53514;BME280;39768;54.148;12.174;2023-08-21T09:32:06;102201.13;;;21.59;71.46
53514;BME280;39768;54.148;12.174;2023-08-21T09:36:09;102197.34;;;21.93;70.38
53514;BME280;39768;54.148;12.174;2023-08-21T09:40:11;102205.19;;;21.67;72.41
53514;BME280;39768;54.148;12.174;2023-08-21T09:44:13;102212.13;;;21.73;68.64
53514;BME280;39768;54.148;12.174;2023-08-21T09:48:14;102207.22;;;21.48;68.57
53514;BME280;39768;54.148;12.174;2023-08-21T09:52:17;102200.09;;;21.30;70.54
53514;BME280;39768;54.148;12.174;2023-08-21T09:56:18;102193.03;;;21.73;68.95
53514;BME280;39768;54.148;12.174;2023-08-21T10:00:20;102195.19;;;21.37;70.55
53514;BME280;39768;54.148;12.174;2023-08-21T10:04:23;102202.25;;;21.23;75.22
53514;BME280;39768;54.148;12.174;2023-08-21T10:08:26;102191.84;;;21.63;72.55
53514;BME280;39768;54.148;12.174;2023-08-21T10:12:29;102195.66;;;21.27;67.61
53514;BME280;39768;54.148;12.174;2023-08-21T10:16:30;102191.88;;;22.09;70.41
53514;BME280;39768;54.148;12.174;2023-08-21T10:20:32;102202.09;;;21.74;70.68
53514;BME280;39768;54.148;12.174;2023-08-21T10:24:36;102202.72;;;21.63;67.22
53514;BME280;39768;54.148;12.174;2023-08-21T10:28:49;102196.56;;;21.44;68.49
53514;BME280;39768;54.148;12.174;2023-08-21T10:32:56;102199.19;;;22.52;64.67
53514;BME280;39768;54.148;12.174;2023-08-21T10:37:07;102196.38;;;22.10;60.61
53514;BME280;39768;54.148;12.174;2023-08-21T10:41:11;102207.66;;;21.56;65.71
53514;BME280;39768;54.148;12.174;2023-08-21T10:45:13;102201.41;;;21.70;64.42
53514;BME280;39768;54.148;12.174;2023-08-21T10:49:14;102202.06;;;20.78;72.23
53514;BME280;39768;54.148;12.174;2023-08-21T10:53:16;102211.28;;;21.08;71.18
53514;BME280;39768;54.148;12.174;2023-08-21T10:57:18;102211.13;;;21.90;71.54
53514;BME280;39768;54.148;12.174;2023-08-21T11:01:20;102208.34;;;21.44;61.19
53514;BME280;39768;54.148;12.174;2023-08-21T11:05:21;102215.88;;;21.86;67.05
53514;BME280;39768;54.148;12.174;2023-08-21T11:09:23;102213.97;;;21.57;66.18
53514;BME280;39768;54.148;12.174;2023-08-21T11:13:25;102219.44;;;22.18;59.37
53514;BME280;39768;54.148;12.174;2023-08-21T11:17:26;102214.56;;;22.97;59.34
53514;BME280;39768;54.148;12.174;2023-08-21T11:21:27;102216.59;;;22.65;56.97
53514;BME280;39768;54.148;12.174;2023-08-21T11:25:29;102219.41;;;21.57;60.31
53514;BME280;39768;54.148;12.174;2023-08-21T11:29:38;102221.53;;;21.52;61.48
53514;BME280;39768;54.148;12.174;2023-08-21T11:33:40;102216.09;;;21.52;62.39
53514;BME280;39768;54.148;12.174;2023-08-21T11:37:45;102218.03;;;21.50;67.52
53514;BME280;39768;54.148;12.174;2023-08-21T11:41:56;102216.41;;;21.93;61.75
53514;BME280;39768;54.148;12.174;2023-08-21T11:45:58;102225.03;;;22.31;59.49
53514;BME280;39768;54.148;12.174;2023-08-21T11:50:07;102223.75;;;22.52;58.70
53514;BME280;39768;54.148;12.174;2023-08-21T11:54:10;102215.31;;;22.27;57.77
53514;BME280;39768;54.148;12.174;2023-08-21T11:58:11;102222.84;;;22.67;58.50
53514;BME280;39768;54.148;12.174;2023-08-21T12:02:14;102215.50;;;22.24;58.52
53514;BME280;39768;54.148;12.174;2023-08-21T12:06:16;102224.47;;;22.26;57.00
53514;BME280;39768;54.148;12.174;2023-08-21T12:10:25;102225.59;;;22.82;55.97
53514;BME280;39768;54.148;12.174;2023-08-21T12:14:27;102224.06;;;22.02;60.33
53514;BME280;39768;54.148;12.174;2023-08-21T12:18:29;102222.63;;;22.26;57.42
53514;BME280;39768;54.148;12.174;2023-08-21T12:22:31;102226.56;;;22.21;64.05
53514;BME280;39768;54.148;12.174;2023-08-21T12:26:33;102234.09;;;22.31;59.83
53514;BME280;39768;54.148;12.174;2023-08-21T12:30:45;102232.00;;;22.36;57.99
53514;BME280;39768;54.148;12.174;2023-08-21T12:34:48;102229.22;;;22.22;60.91
53514;BME280;39768;54.148;12.174;2023-08-21T12:38:49;102234.47;;;22.85;58.22
53514;BME280;39768;54.148;12.174;2023-08-21T12:42:51;102230.75;;;22.42;60.80
53514;BME280;39768;54.148;12.174;2023-08-21T12:46:53;102223.31;;;22.60;57.79
53514;BME280;39768;54.148;12.174;2023-08-21T12:50:54;102225.84;;;22.77;58.60
53514;BME280;39768;54.148;12.174;2023-08-21T12:54:56;102210.22;;;22.21;60.70
53514;BME280;39768;54.148;12.174;2023-08-21T12:58:57;102213.47;;;22.57;58.77
53514;BME280;39768;54.148;12.174;2023-08-21T13:03:00;102213.38;;;21.67;62.46
53514;BME280;39768;54.148;12.174;2023-08-21T13:07:02;102213.63;;;21.63;66.96
53514;BME280;39768;54.148;12.174;2023-08-21T13:11:04;102211.53;;;22.59;57.89
53514;BME280;39768;54.148;12.174;2023-08-21T13:15:07;102215.53;;;22.96;58.38
53514;BME280;39768;54.148;12.174;2023-08-21T13:19:09;102220.44;;;23.34;54.86
53514;BME280;39768;54.148;12.174;2023-08-21T13:23:10;102206.84;;;22.31;55.39
53514;BME280;39768;54.148;12.174;2023-08-21T13:27:12;102207.94;;;22.73;52.94
53514;BME280;39768;54.148;12.174;2023-08-21T13:31:13;102214.31;;;23.30;50.67
53514;BME280;39768;54.148;12.174;2023-08-21T13:35:15;102206.88;;;23.18;51.67
53514;BME280;39768;54.148;12.174;2023-08-21T13:39:18;102201.38;;;22.76;50.61
53514;BME280;39768;54.148;12.174;2023-08-21T13:43:19;102203.06;;;22.78;54.33
53514;BME280;39768;54.148;12.174;2023-08-21T13:47:26;102201.19;;;23.07;53.33
53514;BME280;39768;54.148;12.174;2023-08-21T13:51:27;102205.00;;;22.90;51.52
53514;BME280;39768;54.148;12.174;2023-08-21T13:55:29;102188.16;;;23.26;50.80
53514;BME280;39768;54.148;12.174;2023-08-21T13:59:30;102191.25;;;23.06;51.62
53514;BME280;39768;54.148;12.174;2023-08-21T14:03:32;102187.72;;;22.61;54.00
53514;BME280;39768;54.148;12.174;2023-08-21T14:07:34;102192.81;;;23.10;47.76
53514;BME280;39768;54.148;12.174;2023-08-21T14:11:37;102187.19;;;22.70;52.23
53514;BME280;39768;54.148;12.174;2023-08-21T14:15:38;102193.50;;;23.42;50.06
53514;BME280;39768;54.148;12.174;2023-08-21T14:19:40;102190.53;;;23.59;46.49
53514;BME280;39768;54.148;12.174;2023-08-21T14:23:41;102195.63;;;22.66;46.93
53514;BME280;39768;54.148;12.174;2023-08-21T14:27:43;102185.53;;;22.82;53.18
53514;BME280;39768;54.148;12.174;2023-08-21T14:31:45;102186.31;;;22.40;52.78
53514;BME280;39768;54.148;12.174;2023-08-21T14:35:48;102190.47;;;22.76;50.99
53514;BME280;39768;54.148;12.174;2023-08-21T14:39:50;102199.84;;;23.14;49.49
53514;BME280;39768;54.148;12.174;2023-08-21T14:43:52;102182.41;;;22.88;49.55
53514;BME280;39768;54.148;12.174;2023-08-21T14:47:53;102180.06;;;22.68;47.84
53514;BME280;39768;54.148;12.174;2023-08-21T14:51:55;102173.34;;;23.02;48.06
53514;BME280;39768;54.148;12.174;2023-08-21T14:55:56;102169.84;;;22.86;49.94
53514;BME280;39768;54.148;12.174;2023-08-21T14:59:58;102178.47;;;23.49;49.84
53514;BME280;39768;54.148;12.174;2023-08-21T15:03:59;102175.00;;;23.19;48.38
53514;BME280;39768;54.148;12.174;2023-08-21T15:08:01;102167.66;;;22.91;50.06
53514;BME280;39768;54.148;12.174;2023-08-21T15:12:03;102166.31;;;22.69;48.44
53514;BME280;39768;54.148;12.174;2023-08-21T15:16:04;102161.53;;;23.01;49.51
53514;BME280;39768;54.148;12.174;2023-08-21T15:20:07;102160.94;;;22.96;47.88
53514;BME280;39768;54.148;12.174;2023-08-21T15:24:08;102158.88;;;23.14;48.42
53514;BME280;39768;54.148;12.174;2023-08-21T15:28:10;102162.50;;;23.29;47.62
53514;BME280;39768;54.148;12.174;2023-08-21T15:32:12;102158.03;;;22.71;49.88
53514;BME280;39768;54.148;12.174;2023-08-21T15:36:13;102167.16;;;23.41;51.30
53514;BME280;39768;54.148;12.174;2023-08-21T15:40:15;102166.59;;;23.22;48.84
53514;BME280;39768;54.148;12.174;2023-08-21T15:44:16;102158.63;;;23.60;47.56
53514;BME280;39768;54.148;12.174;2023-08-21T15:48:18;102164.47;;;23.54;47.97
53514;BME280;39768;54.148;12.174;2023-08-21T15:52:20;102148.94;;;23.27;48.37
53514;BME280;39768;54.148;12.174;2023-08-21T15:56:22;102148.28;;;22.81;48.85
53514;BME280;39768;54.148;12.174;2023-08-21T16:00:23;102140.88;;;22.83;50.98
53514;BME280;39768;54.148;12.174;2023-08-21T16:04:25;102124.50;;;22.69;52.81
53514;BME280;39768;54.148;12.174;2023-08-21T16:08:26;102137.00;;;22.15;55.07
53514;BME280;39768;54.148;12.174;2023-08-21T16:12:28;102131.50;;;23.01;53.61
53514;BME280;39768;54.148;12.174;2023-08-21T16:16:29;102127.53;;;22.64;52.85
53514;BME280;39768;54.148;12.174;2023-08-21T16:20:31;102129.50;;;22.47;52.89
53514;BME280;39768;54.148;12.174;2023-08-21T16:24:32;102114.94;;;22.03;56.41
53514;BME280;39768;54.148;12.174;2023-08-21T16:28:34;102118.94;;;22.85;54.76
53514;BME280;39768;54.148;12.174;2023-08-21T16:32:36;102118.59;;;23.18;53.84
53514;BME280;39768;54.148;12.174;2023-08-21T16:36:38;102109.94;;;22.97;54.38
53514;BME280;39768;54.148;12.174;2023-08-21T16:40:39;102108.31;;;22.80;54.59
53514;BME280;39768;54.148;12.174;2023-08-21T16:44:41;102105.19;;;22.44;54.31
53514;BME280;39768;54.148;12.174;2023-08-21T16:48:42;102109.38;;;22.78;53.35
53514;BME280;39768;54.148;12.174;2023-08-21T16:52:44;102102.56;;;22.85;52.49
53514;BME280;39768;54.148;12.174;2023-08-21T16:56:45;102111.00;;;23.50;53.06
53514;BME280;39768;54.148;12.174;2023-08-21T17:00:47;102105.53;;;23.50;49.74
53514;BME280;39768;54.148;12.174;2023-08-21T17:04:49;102107.06;;;24.33;47.26
53514;BME280;39768;54.148;12.174;2023-08-21T17:08:51;102106.66;;;24.39;46.30
53514;BME280;39768;54.148;12.174;2023-08-21T17:12:53;102094.81;;;24.76;45.99
53514;BME280;39768;54.148;12.174;2023-08-21T17:16:55;102111.16;;;24.65;44.74
53514;BME280;39768;54.148;12.174;2023-08-21T17:20:56;102098.84;;;24.07;45.01
53514;BME280;39768;54.148;12.174;2023-08-21T17:24:58;102101.59;;;22.71;49.14
53514;BME280;39768;54.148;12.174;2023-08-21T17:29:19;102100.91;;;21.50;54.42
53514;BME280;39768;54.148;12.174;2023-08-21T17:33:20;102113.97;;;22.04;53.15
53514;BME280;39768;54.148;12.174;2023-08-21T17:37:22;102112.16;;;22.19;52.80
53514;BME280;39768;54.148;12.174;2023-08-21T17:41:23;102106.63;;;21.75;54.72
53514;BME280;39768;54.148;12.174;2023-08-21T17:45:25;102104.34;;;21.38;56.39
53514;BME280;39768;54.148;12.174;2023-08-21T17:49:27;102105.91;;;21.42;55.75
53514;BME280;39768;54.148;12.174;2023-08-21T17:53:31;102103.63;;;21.18;57.26
53514;BME280;39768;54.148;12.174;2023-08-21T17:57:33;102113.56;;;21.51;55.41
53514;BME280;39768;54.148;12.174;2023-08-21T18:01:35;102111.25;;;21.59;55.65
53514;BME280;39768;54.148;12.174;2023-08-21T18:05:36;102106.63;;;21.29;56.32
53514;BME280;39768;54.148;12.174;2023-08-21T18:09:38;102104.66;;;21.16;56.79
53514;BME280;39768;54.148;12.174;2023-08-21T18:13:39;102106.59;;;20.98;60.23
53514;BME280;39768;54.148;12.174;2023-08-21T18:17:41;102107.78;;;20.44;64.32
53514;BME280;39768;54.148;12.174;2023-08-21T18:21:43;102099.72;;;20.42;67.75
53514;BME280;39768;54.148;12.174;2023-08-21T18:25:47;102104.91;;;20.47;64.23
53514;BME280;39768;54.148;12.174;2023-08-21T18:29:49;102105.22;;;20.41;65.70
53514;BME280;39768;54.148;12.174;2023-08-21T18:33:51;102112.53;;;19.88;70.47
53514;BME280;39768;54.148;12.174;2023-08-21T18:37:52;102112.81;;;19.82;72.39
53514;BME280;39768;54.148;12.174;2023-08-21T18:41:53;102116.34;;;19.84;71.46
53514;BME280;39768;54.148;12.174;2023-08-21T18:45:56;102122.41;;;19.72;72.30
53514;BME280;39768;54.148;12.174;2023-08-21T18:49:57;102114.81;;;19.62;73.01
53514;BME280;39768;54.148;12.174;2023-08-21T18:53:59;102118.25;;;19.48;74.37
53514;BME280;39768;54.148;12.174;2023-08-21T18:58:01;102116.19;;;18.78;78.12
53514;BME280;39768;54.148;12.174;2023-08-21T19:02:02;102120.63;;;17.35;91.03
53514;BME280;39768;54.148;12.174;2023-08-21T19:06:04;102112.84;;;17.04;93.91
53514;BME280;39768;54.148;12.174;2023-08-21T19:10:07;102107.97;;;17.14;93.58
53514;BME280;39768;54.148;12.174;2023-08-21T19:14:09;102099.53;;;17.65;89.82
53514;BME280;39768;54.148;12.174;2023-08-21T19:18:10;102106.34;;;17.32;92.72
53514;BME280;39768;54.148;12.174;2023-08-21T19:22:12;102105.81;;;17.44;91.30
53514;BME280;39768;54.148;12.174;2023-08-21T19:26:13;102110.88;;;17.31;91.49
53514;BME280;39768;54.148;12.174;2023-08-21T19:30:15;102106.16;;;16.91;96.53
53514;BME280;39768;54.148;12.174;2023-08-21T19:34:16;102111.22;;;17.00;95.28
53514;BME280;39768;54.148;12.174;2023-08-21T19:38:22;102108.84;;;17.14;94.81
53514;BME280;39768;54.148;12.174;2023-08-21T19:42:24;102093.47;;;17.80;87.19
53514;BME280;39768;54.148;12.174;2023-08-21T19:46:26;102091.94;;;17.73;87.71
53514;BME280;39768;54.148;12.174;2023-08-21T19:50:27;102086.19;;;17.82;86.45
53514;BME280;39768;54.148;12.174;2023-08-21T19:54:29;102095.03;;;17.86;84.85
53514;BME280;39768;54.148;12.174;2023-08-21T19:58:31;102100.13;;;17.72;84.54
53514;BME280;39768;54.148;12.174;2023-08-21T20:02:32;102102.09;;;17.68;84.77
53514;BME280;39768;54.148;12.174;2023-08-21T20:06:37;102107.59;;;17.67;84.50
53514;BME280;39768;54.148;12.174;2023-08-21T20:10:39;102107.66;;;17.65;84.75
53514;BME280;39768;54.148;12.174;2023-08-21T20:14:44;102101.22;;;17.02;88.67
53514;BME280;39768;54.148;12.174;2023-08-21T20:18:46;102105.03;;;16.50;92.89
53514;BME280;39768;54.148;12.174;2023-08-21T20:22:47;102099.53;;;16.28;96.20
53514;BME280;39768;54.148;12.174;2023-08-21T20:26:49;102096.50;;;16.84;91.16
53514;BME280;39768;54.148;12.174;2023-08-21T20:30:51;102091.94;;;16.63;91.08
53514;BME280;39768;54.148;12.174;2023-08-21T20:34:53;102096.41;;;17.10;86.37
53514;BME280;39768;54.148;12.174;2023-08-21T20:38:54;102097.56;;;17.03;86.31
53514;BME280;39768;54.148;12.174;2023-08-21T20:42:56;102093.31;;;16.26;94.98
53514;BME280;39768;54.148;12.174;2023-08-21T20:46:57;102089.91;;;16.21;95.57
53514;BME280;39768;54.148;12.174;2023-08-21T20:50:59;102083.47;;;16.72;90.89